Aviation Digital Data Service (ADDS)

Output produced by TAFs form (1350 UTC 22 October 2014)
found at http://aviationweather.gov/adds/tafs/
 
KDMN 221140Z 2212/2312 05006KT P6SM FEW060 SCT100 BKN250 
     FM221400 VRB04KT P6SM FEW100 FEW250 
     FM222000 14006KT P6SM FEW070 FEW250